createdAt,value
2018-08-16T00:00:45.944Z,18.40
2018-08-16T00:03:26.581Z,18.40
2018-08-16T00:06:07.205Z,18.30
2018-08-16T00:08:48.537Z,18.30
2018-08-16T00:11:29.940Z,18.30
2018-08-16T00:14:13.325Z,18.30
2018-08-16T00:16:53.936Z,18.30
2018-08-16T00:19:34.518Z,18.20
2018-08-16T00:22:16.601Z,18.20
2018-08-16T00:24:57.059Z,18.20
2018-08-16T00:27:37.735Z,18.20
2018-08-16T00:30:19.722Z,18.20
2018-08-16T00:33:00.252Z,18.20
2018-08-16T00:35:43.277Z,18.10
2018-08-16T00:38:23.746Z,18.10
2018-08-16T00:41:04.401Z,18.10
2018-08-16T00:43:46.196Z,18.10
2018-08-16T00:46:26.750Z,18.10
2018-08-16T00:49:07.489Z,18.10
2018-08-16T00:51:47.873Z,18.00
2018-08-16T00:54:28.509Z,18.00
2018-08-16T00:57:10.260Z,17.90
2018-08-16T00:59:51.780Z,17.90
2018-08-16T01:02:32.247Z,17.90
2018-08-16T01:05:14.925Z,17.90
2018-08-16T01:07:55.320Z,17.90
2018-08-16T01:10:36.147Z,17.80
2018-08-16T01:13:16.744Z,17.80
2018-08-16T01:15:57.317Z,17.80
2018-08-16T01:18:40.100Z,17.80
2018-08-16T01:21:20.690Z,17.80
2018-08-16T01:24:01.326Z,17.80
2018-08-16T01:26:44.129Z,17.80
2018-08-16T01:29:24.831Z,17.80
2018-08-16T01:32:05.437Z,17.90
2018-08-16T01:34:46.701Z,17.80
2018-08-16T01:37:27.226Z,17.80
2018-08-16T01:40:08.590Z,17.70
2018-08-16T01:42:49.159Z,17.70
2018-08-16T01:45:29.609Z,17.70
2018-08-16T01:48:13.378Z,17.70
2018-08-16T01:50:53.928Z,17.70
2018-08-16T01:53:34.479Z,17.60
2018-08-16T01:56:15.955Z,17.60
2018-08-16T01:58:56.963Z,17.60
2018-08-16T02:01:37.401Z,17.60
2018-08-16T02:04:18.895Z,17.60
2018-08-16T02:06:59.728Z,17.60
2018-08-16T02:09:41.432Z,17.50
2018-08-16T02:12:22.051Z,17.50
2018-08-16T02:15:02.601Z,17.40
2018-08-16T02:43:45.350Z,17.30
2018-08-16T02:46:25.880Z,17.30
2018-08-16T02:49:07.096Z,17.30
2018-08-16T02:51:47.664Z,17.30
2018-08-16T02:54:28.148Z,17.20
2018-08-16T02:57:08.675Z,17.20
2018-08-16T02:59:49.356Z,17.20
2018-08-16T03:02:29.928Z,17.10
2018-08-16T03:05:10.504Z,17.10
2018-08-16T03:07:51.084Z,17.10
2018-08-16T03:10:34.584Z,17.10
2018-08-16T03:13:15.196Z,17.10
2018-08-16T03:15:55.760Z,17.10
2018-08-16T03:18:37.692Z,17.10
2018-08-16T03:21:18.138Z,17.10
2018-08-16T03:23:58.725Z,17.10
2018-08-16T03:26:39.172Z,17.10
2018-08-16T03:29:19.797Z,17.10
2018-08-16T03:32:01.448Z,17.10
2018-08-16T03:34:42.036Z,17.00
2018-08-16T03:37:22.718Z,17.10
2018-08-16T03:40:05.801Z,17.10
2018-08-16T03:42:46.252Z,17.10
2018-08-16T03:45:26.678Z,17.00
2018-08-16T03:48:07.491Z,17.10
2018-08-16T03:50:48.196Z,17.00
2018-08-16T03:53:28.647Z,17.00
2018-08-16T03:56:09.199Z,17.00
2018-08-16T03:58:49.680Z,17.00
2018-08-16T04:01:30.001Z,17.00
2018-08-16T04:04:10.632Z,17.00
2018-08-16T04:06:51.181Z,17.00
2018-08-16T04:09:32.944Z,17.00
2018-08-16T04:12:13.524Z,17.00
2018-08-16T04:14:54.103Z,17.00
2018-08-16T04:17:37.609Z,17.10
2018-08-16T04:20:18.093Z,17.00
2018-08-16T04:22:58.711Z,17.10
2018-08-16T04:25:39.165Z,17.10
2018-08-16T04:28:19.648Z,17.10
2018-08-16T04:31:01.528Z,17.10
2018-08-16T04:33:41.967Z,17.10
2018-08-16T04:36:22.856Z,17.10
2018-08-16T04:39:06.889Z,17.00
2018-08-16T04:41:47.311Z,17.10
2018-08-16T04:44:27.783Z,17.10
2018-08-16T04:47:08.540Z,17.10
2018-08-16T04:49:48.961Z,17.20
2018-08-16T04:52:29.453Z,17.20
2018-08-16T04:55:10.725Z,17.30
2018-08-16T04:57:51.137Z,17.30
2018-08-16T05:00:34.600Z,17.40
2018-08-16T05:03:15.013Z,17.50
2018-08-16T05:05:55.477Z,17.50
2018-08-16T05:08:37.341Z,17.60
2018-08-16T05:11:17.836Z,17.70
2018-08-16T05:13:58.339Z,17.80
2018-08-16T05:16:39.436Z,18.00
2018-08-16T05:19:19.912Z,18.10
2018-08-16T05:22:01.585Z,18.20
2018-08-16T05:24:42.047Z,18.30
2018-08-16T05:27:22.650Z,18.30
2018-08-16T05:30:06.964Z,18.40
2018-08-16T05:32:47.864Z,18.40
2018-08-16T05:35:28.368Z,18.40
2018-08-16T05:38:08.860Z,18.50
2018-08-16T05:40:49.356Z,18.50
2018-08-16T05:43:29.695Z,18.60
2018-08-16T05:46:10.114Z,18.60
2018-08-16T05:48:50.551Z,18.60
2018-08-16T05:51:32.965Z,18.60
2018-08-16T05:54:13.486Z,18.60
2018-08-16T05:56:54.083Z,18.70
2018-08-16T05:59:35.726Z,18.80
2018-08-16T06:02:16.125Z,18.90
2018-08-16T06:04:56.648Z,19.00
2018-08-16T06:07:37.739Z,19.20
2018-08-16T06:10:18.216Z,19.30
2018-08-16T06:12:58.768Z,19.40
2018-08-16T06:15:39.191Z,19.50
2018-08-16T06:18:19.778Z,19.60
2018-08-16T06:21:01.599Z,19.70
2018-08-16T06:23:42.061Z,19.80
2018-08-16T06:26:22.735Z,19.90
2018-08-16T06:29:07.733Z,19.90
2018-08-16T06:31:48.326Z,20.00
2018-08-16T06:34:28.728Z,20.10
2018-08-16T06:37:09.378Z,20.00
2018-08-16T06:39:50.883Z,20.10
2018-08-16T06:42:32.553Z,20.10
2018-08-16T06:45:13.242Z,20.20
2018-08-16T06:47:53.892Z,20.20
2018-08-16T06:50:36.404Z,20.20
2018-08-16T06:53:17.125Z,20.30
2018-08-16T06:55:57.726Z,20.40
2018-08-16T06:58:42.853Z,20.50
2018-08-16T07:01:23.523Z,20.60
2018-08-16T07:04:06.035Z,20.70
2018-08-16T07:06:46.535Z,21.00
2018-08-16T07:09:27.105Z,21.30
2018-08-16T07:12:07.902Z,21.60
2018-08-16T07:14:48.372Z,21.90
2018-08-16T07:17:29.172Z,22.20
2018-08-16T07:20:09.964Z,22.20
2018-08-16T07:22:50.516Z,22.20
2018-08-16T07:25:32.217Z,22.20
2018-08-16T07:28:12.659Z,22.10
2018-08-16T07:30:53.219Z,22.00
2018-08-16T07:33:36.051Z,22.00
2018-08-16T07:36:16.765Z,21.90
2018-08-16T07:38:57.693Z,22.10
2018-08-16T07:41:38.552Z,22.20
2018-08-16T07:44:19.104Z,22.10
2018-08-16T07:46:59.648Z,21.80
2018-08-16T07:49:40.072Z,21.70
2018-08-16T07:52:20.488Z,22.00
2018-08-16T07:55:02.355Z,22.30
2018-08-16T07:57:42.951Z,22.70
2018-08-16T08:00:38.451Z,22.90
2018-08-16T08:03:18.837Z,23.20
2018-08-16T08:05:59.281Z,23.60
2018-08-16T08:08:39.772Z,23.90
2018-08-16T08:11:20.284Z,24.10
2018-08-16T08:14:00.736Z,24.00
2018-08-16T08:16:41.272Z,23.70
2018-08-16T08:19:21.565Z,23.40
2018-08-16T08:22:03.427Z,23.30
2018-08-16T08:24:43.834Z,23.00
2018-08-16T08:27:24.392Z,23.20
2018-08-16T08:30:08.296Z,23.70
2018-08-16T08:32:48.852Z,24.30
2018-08-16T08:35:29.372Z,24.50
2018-08-16T08:38:15.231Z,24.50
2018-08-16T08:40:55.608Z,24.30
2018-08-16T08:43:53.156Z,24.10
2018-08-16T08:46:35.401Z,23.90
2018-08-16T08:49:15.905Z,23.70
2018-08-16T08:51:56.423Z,23.70
2018-08-16T08:58:57.364Z,23.90
2018-08-16T09:01:38.438Z,23.80
2018-08-16T09:04:18.818Z,23.60
2018-08-16T09:06:59.402Z,23.50
2018-08-16T09:09:54.124Z,23.70
2018-08-16T09:12:51.883Z,23.90
2018-08-16T09:15:46.740Z,23.80
2018-08-16T09:18:27.364Z,23.70
2018-08-16T09:21:08.941Z,23.70
2018-08-16T09:23:49.525Z,23.70
2018-08-16T09:26:35.343Z,23.60
2018-08-16T09:30:39.876Z,23.50
2018-08-16T09:34:28.040Z,23.70
2018-08-16T09:37:08.576Z,24.00
2018-08-16T09:39:49.427Z,24.30
2018-08-16T09:42:30.008Z,24.50
2018-08-16T09:45:27.672Z,24.70
2018-08-16T09:48:25.804Z,24.70
2018-08-16T09:51:06.405Z,24.20
2018-08-16T09:53:47.052Z,23.80
2018-08-16T09:56:27.892Z,23.70
2018-08-16T09:59:09.547Z,23.70
2018-08-16T10:01:50.136Z,23.80
2018-08-16T10:04:30.731Z,23.90
2018-08-16T10:07:13.964Z,24.00
2018-08-16T10:09:54.572Z,24.10
2018-08-16T10:12:42.517Z,24.20
2018-08-16T10:15:23.032Z,24.10
2018-08-16T10:18:03.606Z,24.10
2018-08-16T10:20:45.764Z,24.20
2018-08-16T10:23:26.808Z,24.40
2018-08-16T10:26:07.768Z,24.50
2018-08-16T10:28:49.008Z,24.50
2018-08-16T10:31:29.421Z,24.50
2018-08-16T10:34:12.268Z,24.40
2018-08-16T10:36:52.658Z,24.10
2018-08-16T10:39:33.260Z,23.90
2018-08-16T10:42:15.225Z,23.90
2018-08-16T10:44:55.767Z,23.90
2018-08-16T10:47:36.253Z,23.70
2018-08-16T10:50:16.729Z,23.70
2018-08-16T10:52:57.220Z,23.60
2018-08-16T10:55:39.311Z,23.70
2018-08-16T10:58:20.111Z,23.70
2018-08-16T11:01:00.599Z,23.40
2018-08-16T11:03:43.288Z,23.30
2018-08-16T11:06:23.843Z,23.20
2018-08-16T11:09:07.171Z,23.10
2018-08-16T11:11:47.547Z,23.30
2018-08-16T11:14:28.056Z,23.60
2018-08-16T11:17:09.323Z,23.80
2018-08-16T11:19:49.916Z,24.00
2018-08-16T11:22:30.335Z,24.10
2018-08-16T11:25:13.441Z,24.20
2018-08-16T11:27:53.932Z,24.20
2018-08-16T11:30:34.411Z,24.30
2018-08-16T11:33:15.500Z,24.10
2018-08-16T11:35:56.032Z,24.10
2018-08-16T11:38:36.579Z,24.00
2018-08-16T11:41:16.858Z,23.90
2018-08-16T11:43:57.392Z,23.80
2018-08-16T11:46:39.740Z,23.70
2018-08-16T11:49:20.198Z,23.80
2018-08-16T11:52:00.717Z,24.00
2018-08-16T11:54:43.579Z,24.10
2018-08-16T11:57:24.490Z,24.10
2018-08-16T12:00:05.276Z,23.70
2018-08-16T12:02:45.796Z,23.60
2018-08-16T12:05:26.306Z,23.80
2018-08-16T12:08:06.707Z,24.10
2018-08-16T12:10:47.180Z,24.10
2018-08-16T12:13:27.468Z,24.10
2018-08-16T12:16:09.412Z,24.20
2018-08-16T12:18:49.869Z,24.20
2018-08-16T12:21:30.520Z,24.30
2018-08-16T12:24:13.671Z,24.10
2018-08-16T12:26:54.372Z,24.10
2018-08-16T12:29:34.983Z,24.00
2018-08-16T12:32:15.636Z,23.90
2018-08-16T12:34:56.213Z,23.90
2018-08-16T12:37:36.783Z,24.10
2018-08-16T12:40:17.440Z,24.20
2018-08-16T12:42:57.939Z,24.00
2018-08-16T12:45:39.926Z,24.00
2018-08-16T12:48:20.508Z,24.00
2018-08-16T12:51:01.216Z,23.90
2018-08-16T12:53:43.630Z,23.80
2018-08-16T12:56:23.756Z,23.80
2018-08-16T12:59:04.424Z,23.80
2018-08-16T13:01:45.103Z,23.80
2018-08-16T13:04:25.679Z,23.70
2018-08-16T13:07:06.167Z,23.70
2018-08-16T13:09:49.716Z,23.70
2018-08-16T13:12:30.488Z,23.80
2018-08-16T13:15:13.464Z,23.90
2018-08-16T13:17:53.792Z,24.00
2018-08-16T13:20:34.117Z,24.10
2018-08-16T13:23:15.185Z,24.00
2018-08-16T13:25:55.616Z,23.90
2018-08-16T13:28:36.195Z,23.90
2018-08-16T13:31:16.858Z,23.90
2018-08-16T13:33:57.366Z,23.90
2018-08-16T13:36:37.955Z,23.90
2018-08-16T13:39:18.407Z,23.90
2018-08-16T13:41:58.999Z,24.10
2018-08-16T13:44:42.731Z,24.00
2018-08-16T13:47:23.349Z,24.00
2018-08-16T13:50:03.891Z,23.90
2018-08-16T13:52:45.558Z,24.00
2018-08-16T13:55:26.816Z,24.10
2018-08-16T13:58:07.424Z,24.10
2018-08-16T14:00:47.860Z,24.20
2018-08-16T14:03:28.303Z,24.40
2018-08-16T14:06:10.223Z,24.60
2018-08-16T14:08:50.703Z,24.80
2018-08-16T14:11:31.145Z,24.70
2018-08-16T14:14:14.916Z,24.50
2018-08-16T14:16:55.488Z,24.30
2018-08-16T14:19:36.000Z,24.30
2018-08-16T14:22:17.379Z,24.50
2018-08-16T14:24:57.944Z,24.60
2018-08-16T14:27:39.579Z,24.50
2018-08-16T14:30:20.181Z,24.50
2018-08-16T14:33:00.773Z,24.40
2018-08-16T14:35:44.256Z,24.30
2018-08-16T14:38:24.663Z,24.30
2018-08-16T14:41:05.284Z,24.30
2018-08-16T14:43:45.885Z,24.10
2018-08-16T14:46:26.412Z,24.10
2018-08-16T14:49:06.828Z,24.10
2018-08-16T14:51:47.379Z,24.10
2018-08-16T14:54:28.040Z,24.20
2018-08-16T14:57:09.653Z,24.20
2018-08-16T14:59:50.274Z,24.10
2018-08-16T15:02:31.113Z,24.10
2018-08-16T15:05:14.271Z,24.10
2018-08-16T15:07:54.834Z,24.10
2018-08-16T15:10:35.442Z,24.10
2018-08-16T15:13:16.178Z,24.10
2018-08-16T15:15:56.663Z,24.10
2018-08-16T15:18:37.230Z,24.10
2018-08-16T15:21:17.720Z,24.10
2018-08-16T15:23:58.303Z,24.20
2018-08-16T15:26:40.218Z,24.20
2018-08-16T15:29:21.136Z,24.20
2018-08-16T15:32:01.655Z,24.30
2018-08-16T15:34:46.366Z,24.20
2018-08-16T15:37:26.956Z,24.20
2018-08-16T15:40:07.637Z,24.20
2018-08-16T15:42:48.875Z,24.30
2018-08-16T15:45:29.508Z,24.20
2018-08-16T15:48:13.300Z,24.10
2018-08-16T15:50:53.672Z,24.10
2018-08-16T15:53:34.031Z,24.10
2018-08-16T15:57:08.327Z,24.20
2018-08-16T15:59:48.845Z,24.30
2018-08-16T16:02:29.223Z,24.30
2018-08-16T16:05:10.583Z,24.20
2018-08-16T16:07:51.038Z,24.10
2018-08-16T16:10:31.463Z,24.10
2018-08-16T16:13:15.205Z,24.00
2018-08-16T16:19:01.087Z,24.00
2018-08-16T16:21:43.644Z,23.90
2018-08-16T16:24:24.140Z,23.90
2018-08-16T16:27:04.655Z,23.90
2018-08-16T16:29:46.419Z,23.90
2018-08-16T16:32:26.977Z,23.90
2018-08-16T16:35:07.619Z,23.90
2018-08-16T16:37:48.129Z,24.00
2018-08-16T16:40:28.686Z,24.00
2018-08-16T16:43:11.223Z,24.00
2018-08-16T16:45:51.880Z,24.00
2018-08-16T16:48:32.385Z,23.90
2018-08-16T16:51:14.914Z,23.80
2018-08-16T16:53:55.457Z,23.70
2018-08-16T16:56:36.104Z,23.70
2018-08-16T16:59:16.627Z,23.70
2018-08-16T17:01:58.414Z,23.70
2018-08-16T17:04:38.991Z,23.70
2018-08-16T17:07:19.620Z,23.70
2018-08-16T17:10:00.160Z,23.70
2018-08-16T17:12:42.296Z,23.70
2018-08-16T17:15:22.676Z,23.70
2018-08-16T17:18:03.114Z,23.70
2018-08-16T17:20:45.283Z,23.60
2018-08-16T17:23:25.674Z,23.60
2018-08-16T17:26:06.227Z,23.50
2018-08-16T17:28:46.784Z,23.50
2018-08-16T17:31:27.200Z,23.50
2018-08-16T17:34:07.699Z,23.50
2018-08-16T17:36:48.306Z,23.50
2018-08-16T17:39:28.810Z,23.40
2018-08-16T17:42:10.658Z,23.30
2018-08-16T17:44:51.015Z,23.30
2018-08-16T17:47:31.735Z,23.30
2018-08-16T17:50:14.809Z,23.30
2018-08-16T17:52:55.280Z,23.30
2018-08-16T17:55:35.757Z,23.30
2018-08-16T17:58:16.392Z,23.30
2018-08-16T18:00:56.987Z,23.20
2018-08-16T18:03:37.436Z,23.20
2018-08-16T18:06:17.884Z,23.20
2018-08-16T18:08:58.372Z,23.20
2018-08-16T18:11:38.916Z,23.10
2018-08-16T18:14:19.514Z,23.10
2018-08-16T18:17:00.926Z,23.00
2018-08-16T18:19:42.231Z,23.10
2018-08-16T18:22:22.720Z,23.10
2018-08-16T18:25:03.303Z,23.10
2018-08-16T18:27:44.725Z,23.00
2018-08-16T18:30:25.349Z,23.00
2018-08-16T18:33:05.852Z,22.90
2018-08-16T18:35:46.479Z,22.90
2018-08-16T18:38:26.903Z,22.90
2018-08-16T18:41:07.415Z,22.80
2018-08-16T18:43:47.963Z,22.90
2018-08-16T18:46:28.360Z,22.80
2018-08-16T18:49:09.038Z,22.80
2018-08-16T18:51:49.677Z,22.90
2018-08-16T18:54:42.395Z,22.80
2018-08-16T18:57:22.998Z,22.80
2018-08-16T19:00:03.606Z,22.70
2018-08-16T19:02:45.402Z,22.60
2018-08-16T19:05:26.001Z,22.50
2018-08-16T19:08:06.844Z,22.40
2018-08-16T19:10:48.197Z,22.40
2018-08-16T19:13:28.825Z,22.40
2018-08-16T19:16:16.265Z,22.40
2018-08-16T19:18:56.749Z,22.30
2018-08-16T19:21:37.349Z,22.30
2018-08-16T19:24:20.745Z,22.20
2018-08-16T19:27:01.555Z,22.10
2018-08-16T19:29:44.178Z,22.00
2018-08-16T19:32:24.720Z,22.00
2018-08-16T19:35:05.540Z,22.00
2018-08-16T19:37:47.357Z,21.90
2018-08-16T19:40:27.984Z,21.90
2018-08-16T19:43:08.642Z,21.80
2018-08-16T19:45:49.096Z,21.80
2018-08-16T19:48:29.707Z,21.80
2018-08-16T19:54:08.429Z,21.60
2018-08-16T19:56:49.130Z,21.50
2018-08-16T19:59:29.875Z,21.50
2018-08-16T20:02:11.520Z,21.40
2018-08-16T20:04:52.085Z,21.30
2018-08-16T20:10:44.546Z,21.30
2018-08-16T20:13:25.205Z,21.20
2018-08-16T20:16:05.824Z,21.20
2018-08-16T20:18:47.472Z,21.10
2018-08-16T20:21:28.284Z,21.10
2018-08-16T20:24:08.875Z,21.10
2018-08-16T20:26:49.445Z,21.10
2018-08-16T20:29:29.889Z,21.10
2018-08-16T20:32:11.710Z,21.10
2018-08-16T20:34:52.205Z,21.10
2018-08-16T20:37:32.708Z,21.10
2018-08-16T20:40:14.696Z,21.10
2018-08-16T20:42:55.271Z,21.10
2018-08-16T20:45:35.707Z,21.10
2018-08-16T20:48:17.496Z,21.10
2018-08-16T20:51:12.281Z,21.00
2018-08-16T20:53:53.907Z,21.00
2018-08-16T20:56:34.207Z,21.00
2018-08-16T20:59:16.859Z,20.90
2018-08-16T21:01:57.235Z,20.90
2018-08-16T21:04:37.568Z,20.90
2018-08-16T21:07:17.948Z,20.90
2018-08-16T21:09:58.434Z,20.80
2018-08-16T21:12:39.001Z,20.80
2018-08-16T21:15:19.524Z,20.80
2018-08-16T21:18:00.063Z,20.70
2018-08-16T21:20:40.343Z,20.70
2018-08-16T21:23:20.642Z,20.70
2018-08-16T21:26:01.175Z,20.70
2018-08-16T21:28:42.975Z,20.70
2018-08-16T21:31:23.543Z,20.70
2018-08-16T21:34:04.079Z,20.70
2018-08-16T21:36:45.774Z,20.70
2018-08-16T21:39:26.255Z,20.60
2018-08-16T21:42:06.544Z,20.60
2018-08-16T21:44:47.773Z,20.60
2018-08-16T21:47:28.404Z,20.50
2018-08-16T21:50:09.228Z,20.50
2018-08-16T21:52:49.699Z,20.40
2018-08-16T21:55:30.101Z,20.40
2018-08-16T21:58:12.033Z,20.40
2018-08-16T22:00:54.735Z,20.40
2018-08-16T22:03:35.067Z,20.40
2018-08-16T22:06:32.519Z,20.30
2018-08-16T22:09:14.905Z,20.30
2018-08-16T22:11:55.489Z,20.30
2018-08-16T22:14:35.946Z,20.30
2018-08-16T22:17:17.924Z,20.30
2018-08-16T22:19:58.436Z,20.40
2018-08-16T22:22:38.916Z,20.40
2018-08-16T22:25:19.375Z,20.50
2018-08-16T22:27:59.896Z,20.60
2018-08-16T22:30:40.427Z,20.60
2018-08-16T22:33:20.893Z,20.50
2018-08-16T22:36:01.237Z,20.50
2018-08-16T22:38:42.020Z,20.40
2018-08-16T22:41:22.559Z,20.40
2018-08-16T22:44:03.088Z,20.30
2018-08-16T22:46:45.259Z,20.20
2018-08-16T22:49:25.742Z,20.20
2018-08-16T22:52:06.264Z,20.10
2018-08-16T22:54:48.127Z,20.10
2018-08-16T22:57:28.619Z,20.20
2018-08-16T23:00:10.731Z,20.20
2018-08-16T23:02:52.020Z,20.20
2018-08-16T23:05:32.337Z,20.20
2018-08-16T23:08:13.899Z,20.20
2018-08-16T23:10:54.466Z,20.20
2018-08-16T23:13:34.976Z,20.20
2018-08-16T23:16:16.929Z,20.10
2018-08-16T23:18:57.294Z,20.10
2018-08-16T23:21:37.872Z,20.10
2018-08-16T23:24:18.367Z,20.10
2018-08-16T23:26:58.948Z,20.10
2018-08-16T23:29:39.451Z,20.10
2018-08-16T23:32:19.738Z,20.10
2018-08-16T23:35:00.219Z,20.00
2018-08-16T23:37:40.622Z,19.90
2018-08-16T23:40:21.167Z,19.90
2018-08-16T23:43:01.837Z,19.80
2018-08-16T23:45:43.211Z,19.80
2018-08-16T23:48:30.767Z,19.80
2018-08-16T23:51:12.313Z,19.80
2018-08-16T23:53:52.663Z,19.80
2018-08-16T23:56:33.157Z,19.70
2018-08-16T23:59:15.408Z,19.70
